sensor_id;sensor_type;location;lat;lon;timestamp;P1;durP1;ratioP1;P2;durP2;ratioP2
25125;SDS011;13106;50.808;5.670;2023-09-18T00:00:54;7.75;;;5.10;;
25125;SDS011;13106;50.808;5.670;2023-09-18T00:03:23;9.02;;;5.10;;
25125;SDS011;13106;50.808;5.670;2023-09-18T00:05:52;8.95;;;4.70;;
25125;SDS011;13106;50.808;5.670;2023-09-18T00:08:19;11.55;;;5.03;;
25125;SDS011;13106;50.808;5.670;2023-09-18T00:10:54;8.52;;;4.50;;
25125;SDS011;13106;50.808;5.670;2023-09-18T00:13:21;6.35;;;4.97;;
25125;SDS011;13106;50.808;5.670;2023-09-18T00:15:47;5.82;;;4.40;;
25125;SDS011;13106;50.808;5.670;2023-09-18T00:18:14;8.95;;;4.72;;
25125;SDS011;13106;50.808;5.670;2023-09-18T00:20:40;10.55;;;4.82;;
25125;SDS011;13106;50.808;5.670;2023-09-18T00:23:07;10.20;;;5.07;;
25125;SDS011;13106;50.808;5.670;2023-09-18T00:25:34;9.60;;;4.90;;
25125;SDS011;13106;50.808;5.670;2023-09-18T00:28:00;7.20;;;4.85;;
25125;SDS011;13106;50.808;5.670;2023-09-18T00:30:26;7.65;;;4.95;;
25125;SDS011;13106;50.808;5.670;2023-09-18T00:32:52;7.43;;;4.28;;
25125;SDS011;13106;50.808;5.670;2023-09-18T00:35:18;8.02;;;4.60;;
25125;SDS011;13106;50.808;5.670;2023-09-18T00:37:44;9.50;;;4.93;;
25125;SDS011;13106;50.808;5.670;2023-09-18T00:40:10;10.48;;;5.03;;
25125;SDS011;13106;50.808;5.670;2023-09-18T00:42:37;10.32;;;5.28;;
25125;SDS011;13106;50.808;5.670;2023-09-18T00:45:03;7.85;;;4.55;;
25125;SDS011;13106;50.808;5.670;2023-09-18T00:47:29;7.65;;;5.03;;
25125;SDS011;13106;50.808;5.670;2023-09-18T00:49:55;10.05;;;5.15;;
25125;SDS011;13106;50.808;5.670;2023-09-18T00:52:21;8.32;;;4.95;;
25125;SDS011;13106;50.808;5.670;2023-09-18T00:54:48;10.30;;;4.88;;
25125;SDS011;13106;50.808;5.670;2023-09-18T00:57:16;9.20;;;5.03;;
25125;SDS011;13106;50.808;5.670;2023-09-18T00:59:42;11.43;;;4.45;;
25125;SDS011;13106;50.808;5.670;2023-09-18T01:02:09;7.47;;;4.50;;
25125;SDS011;13106;50.808;5.670;2023-09-18T01:04:36;7.15;;;4.95;;
25125;SDS011;13106;50.808;5.670;2023-09-18T01:07:03;10.05;;;4.90;;
25125;SDS011;13106;50.808;5.670;2023-09-18T01:09:32;11.90;;;4.90;;
25125;SDS011;13106;50.808;5.670;2023-09-18T01:14:33;8.63;;;5.30;;
25125;SDS011;13106;50.808;5.670;2023-09-18T01:17:03;9.82;;;4.90;;
25125;SDS011;13106;50.808;5.670;2023-09-18T01:22:03;9.77;;;4.65;;
25125;SDS011;13106;50.808;5.670;2023-09-18T01:24:29;8.52;;;5.18;;
25125;SDS011;13106;50.808;5.670;2023-09-18T01:26:55;7.80;;;4.72;;
25125;SDS011;13106;50.808;5.670;2023-09-18T01:29:21;7.18;;;4.65;;
25125;SDS011;13106;50.808;5.670;2023-09-18T01:31:47;10.07;;;4.78;;
25125;SDS011;13106;50.808;5.670;2023-09-18T01:34:14;9.18;;;4.70;;
25125;SDS011;13106;50.808;5.670;2023-09-18T01:36:41;10.43;;;4.97;;
25125;SDS011;13106;50.808;5.670;2023-09-18T01:39:07;9.30;;;4.85;;
25125;SDS011;13106;50.808;5.670;2023-09-18T01:41:35;9.18;;;5.18;;
25125;SDS011;13106;50.808;5.670;2023-09-18T01:44:01;11.80;;;5.03;;
25125;SDS011;13106;50.808;5.670;2023-09-18T01:46:29;12.50;;;4.93;;
25125;SDS011;13106;50.808;5.670;2023-09-18T01:48:57;12.07;;;4.70;;
25125;SDS011;13106;50.808;5.670;2023-09-18T01:51:24;10.57;;;5.32;;
25125;SDS011;13106;50.808;5.670;2023-09-18T01:53:50;13.52;;;4.95;;
25125;SDS011;13106;50.808;5.670;2023-09-18T01:56:16;6.30;;;4.70;;
25125;SDS011;13106;50.808;5.670;2023-09-18T01:58:42;12.40;;;4.60;;
25125;SDS011;13106;50.808;5.670;2023-09-18T02:01:08;13.00;;;4.90;;
25125;SDS011;13106;50.808;5.670;2023-09-18T02:03:34;12.05;;;4.68;;
25125;SDS011;13106;50.808;5.670;2023-09-18T02:06:00;19.80;;;6.18;;
25125;SDS011;13106;50.808;5.670;2023-09-18T02:08:26;10.55;;;5.20;;
25125;SDS011;13106;50.808;5.670;2023-09-18T02:10:52;10.88;;;4.32;;
25125;SDS011;13106;50.808;5.670;2023-09-18T02:13:18;14.18;;;5.20;;
25125;SDS011;13106;50.808;5.670;2023-09-18T02:15:44;11.70;;;4.93;;
25125;SDS011;13106;50.808;5.670;2023-09-18T02:18:10;9.40;;;4.40;;
25125;SDS011;13106;50.808;5.670;2023-09-18T02:20:40;17.40;;;4.78;;
25125;SDS011;13106;50.808;5.670;2023-09-18T02:23:06;11.88;;;4.10;;
25125;SDS011;13106;50.808;5.670;2023-09-18T02:25:32;11.75;;;4.28;;
25125;SDS011;13106;50.808;5.670;2023-09-18T02:27:58;10.68;;;4.05;;
25125;SDS011;13106;50.808;5.670;2023-09-18T02:30:24;13.32;;;4.35;;
25125;SDS011;13106;50.808;5.670;2023-09-18T02:32:50;16.77;;;4.15;;
25125;SDS011;13106;50.808;5.670;2023-09-18T02:35:16;14.40;;;4.55;;
25125;SDS011;13106;50.808;5.670;2023-09-18T02:37:43;16.30;;;4.07;;
25125;SDS011;13106;50.808;5.670;2023-09-18T02:40:09;14.38;;;4.03;;
25125;SDS011;13106;50.808;5.670;2023-09-18T02:42:35;8.73;;;3.67;;
25125;SDS011;13106;50.808;5.670;2023-09-18T02:45:01;15.18;;;4.03;;
25125;SDS011;13106;50.808;5.670;2023-09-18T02:47:27;12.38;;;4.25;;
25125;SDS011;13106;50.808;5.670;2023-09-18T02:49:53;9.82;;;3.97;;
25125;SDS011;13106;50.808;5.670;2023-09-18T02:52:19;16.02;;;4.10;;
25125;SDS011;13106;50.808;5.670;2023-09-18T02:54:45;9.50;;;3.05;;
25125;SDS011;13106;50.808;5.670;2023-09-18T02:57:11;10.52;;;3.75;;
25125;SDS011;13106;50.808;5.670;2023-09-18T02:59:38;8.40;;;3.17;;
25125;SDS011;13106;50.808;5.670;2023-09-18T03:02:04;7.25;;;3.10;;
25125;SDS011;13106;50.808;5.670;2023-09-18T03:04:31;9.25;;;4.00;;
25125;SDS011;13106;50.808;5.670;2023-09-18T03:06:57;9.60;;;3.60;;
25125;SDS011;13106;50.808;5.670;2023-09-18T03:09:23;10.18;;;3.65;;
25125;SDS011;13106;50.808;5.670;2023-09-18T03:11:49;10.60;;;3.78;;
25125;SDS011;13106;50.808;5.670;2023-09-18T03:14:15;12.35;;;3.63;;
25125;SDS011;13106;50.808;5.670;2023-09-18T03:16:41;6.88;;;3.35;;
25125;SDS011;13106;50.808;5.670;2023-09-18T03:19:07;9.57;;;3.25;;
25125;SDS011;13106;50.808;5.670;2023-09-18T03:21:33;8.77;;;3.90;;
25125;SDS011;13106;50.808;5.670;2023-09-18T03:24:00;7.60;;;3.05;;
25125;SDS011;13106;50.808;5.670;2023-09-18T03:26:27;5.40;;;2.92;;
25125;SDS011;13106;50.808;5.670;2023-09-18T03:28:54;8.55;;;3.30;;
25125;SDS011;13106;50.808;5.670;2023-09-18T03:31:20;10.38;;;3.58;;
25125;SDS011;13106;50.808;5.670;2023-09-18T03:33:46;9.55;;;3.90;;
25125;SDS011;13106;50.808;5.670;2023-09-18T03:36:12;6.13;;;2.90;;
25125;SDS011;13106;50.808;5.670;2023-09-18T03:38:38;8.05;;;3.15;;
25125;SDS011;13106;50.808;5.670;2023-09-18T03:41:04;9.80;;;3.20;;
25125;SDS011;13106;50.808;5.670;2023-09-18T03:43:31;8.13;;;3.33;;
25125;SDS011;13106;50.808;5.670;2023-09-18T03:46:06;4.72;;;2.50;;
25125;SDS011;13106;50.808;5.670;2023-09-18T03:48:33;4.85;;;2.90;;
25125;SDS011;13106;50.808;5.670;2023-09-18T03:51:05;9.63;;;2.13;;
25125;SDS011;13106;50.808;5.670;2023-09-18T03:55:58;6.95;;;2.05;;
25125;SDS011;13106;50.808;5.670;2023-09-18T03:58:24;5.53;;;2.22;;
25125;SDS011;13106;50.808;5.670;2023-09-18T04:00:50;5.90;;;2.47;;
25125;SDS011;13106;50.808;5.670;2023-09-18T04:03:17;4.85;;;2.40;;
25125;SDS011;13106;50.808;5.670;2023-09-18T04:05:43;3.63;;;2.05;;
25125;SDS011;13106;50.808;5.670;2023-09-18T04:08:09;5.45;;;2.30;;
25125;SDS011;13106;50.808;5.670;2023-09-18T04:10:36;5.53;;;2.20;;
25125;SDS011;13106;50.808;5.670;2023-09-18T04:13:02;3.03;;;1.80;;
25125;SDS011;13106;50.808;5.670;2023-09-18T04:15:29;6.53;;;2.50;;
25125;SDS011;13106;50.808;5.670;2023-09-18T04:17:55;7.13;;;2.38;;
25125;SDS011;13106;50.808;5.670;2023-09-18T04:20:21;4.55;;;2.72;;
25125;SDS011;13106;50.808;5.670;2023-09-18T04:23:16;3.72;;;2.10;;
25125;SDS011;13106;50.808;5.670;2023-09-18T04:25:36;6.60;;;2.47;;
25125;SDS011;13106;50.808;5.670;2023-09-18T04:28:03;4.80;;;2.13;;
25125;SDS011;13106;50.808;5.670;2023-09-18T04:30:29;5.47;;;1.88;;
25125;SDS011;13106;50.808;5.670;2023-09-18T04:32:55;3.92;;;1.60;;
25125;SDS011;13106;50.808;5.670;2023-09-18T04:35:21;5.20;;;2.17;;
25125;SDS011;13106;50.808;5.670;2023-09-18T04:37:50;5.85;;;2.13;;
25125;SDS011;13106;50.808;5.670;2023-09-18T04:40:16;8.00;;;2.13;;
25125;SDS011;13106;50.808;5.670;2023-09-18T04:42:42;4.25;;;1.90;;
25125;SDS011;13106;50.808;5.670;2023-09-18T04:45:08;2.67;;;1.92;;
25125;SDS011;13106;50.808;5.670;2023-09-18T04:47:34;2.63;;;1.90;;
25125;SDS011;13106;50.808;5.670;2023-09-18T04:50:01;4.47;;;1.85;;
25125;SDS011;13106;50.808;5.670;2023-09-18T04:52:30;3.53;;;1.50;;
25125;SDS011;13106;50.808;5.670;2023-09-18T04:54:56;5.93;;;1.85;;
25125;SDS011;13106;50.808;5.670;2023-09-18T04:57:22;3.88;;;1.80;;
25125;SDS011;13106;50.808;5.670;2023-09-18T04:59:49;3.10;;;1.92;;
25125;SDS011;13106;50.808;5.670;2023-09-18T05:02:15;7.60;;;1.75;;
25125;SDS011;13106;50.808;5.670;2023-09-18T05:04:41;4.22;;;1.88;;
25125;SDS011;13106;50.808;5.670;2023-09-18T05:07:07;5.55;;;1.92;;
25125;SDS011;13106;50.808;5.670;2023-09-18T05:09:33;6.20;;;1.88;;
25125;SDS011;13106;50.808;5.670;2023-09-18T05:12:00;4.65;;;2.03;;
25125;SDS011;13106;50.808;5.670;2023-09-18T05:14:26;5.13;;;1.65;;
25125;SDS011;13106;50.808;5.670;2023-09-18T05:16:52;2.50;;;1.70;;
25125;SDS011;13106;50.808;5.670;2023-09-18T05:19:18;4.72;;;1.80;;
25125;SDS011;13106;50.808;5.670;2023-09-18T05:21:45;4.70;;;1.70;;
25125;SDS011;13106;50.808;5.670;2023-09-18T05:24:11;2.72;;;1.80;;
25125;SDS011;13106;50.808;5.670;2023-09-18T05:26:37;3.47;;;1.42;;
25125;SDS011;13106;50.808;5.670;2023-09-18T05:29:03;3.55;;;1.75;;
25125;SDS011;13106;50.808;5.670;2023-09-18T05:31:29;4.53;;;1.80;;
25125;SDS011;13106;50.808;5.670;2023-09-18T05:33:55;2.83;;;1.52;;
25125;SDS011;13106;50.808;5.670;2023-09-18T05:36:22;4.82;;;1.90;;
25125;SDS011;13106;50.808;5.670;2023-09-18T05:38:48;3.38;;;1.70;;
25125;SDS011;13106;50.808;5.670;2023-09-18T05:41:14;8.38;;;2.33;;
25125;SDS011;13106;50.808;5.670;2023-09-18T05:43:40;5.15;;;1.83;;
25125;SDS011;13106;50.808;5.670;2023-09-18T05:46:06;3.70;;;1.60;;
25125;SDS011;13106;50.808;5.670;2023-09-18T05:48:32;4.47;;;1.70;;
25125;SDS011;13106;50.808;5.670;2023-09-18T05:50:58;4.60;;;1.80;;
25125;SDS011;13106;50.808;5.670;2023-09-18T05:53:24;3.20;;;1.60;;
25125;SDS011;13106;50.808;5.670;2023-09-18T05:55:50;4.30;;;1.65;;
25125;SDS011;13106;50.808;5.670;2023-09-18T05:58:16;4.03;;;1.60;;
25125;SDS011;13106;50.808;5.670;2023-09-18T06:00:46;4.53;;;1.83;;
25125;SDS011;13106;50.808;5.670;2023-09-18T06:03:12;7.03;;;2.30;;
25125;SDS011;13106;50.808;5.670;2023-09-18T06:05:40;4.22;;;1.65;;
25125;SDS011;13106;50.808;5.670;2023-09-18T06:08:06;6.68;;;1.80;;
25125;SDS011;13106;50.808;5.670;2023-09-18T06:10:32;9.32;;;1.98;;
25125;SDS011;13106;50.808;5.670;2023-09-18T06:12:58;4.88;;;2.20;;
25125;SDS011;13106;50.808;5.670;2023-09-18T06:15:29;9.55;;;6.25;;
25125;SDS011;13106;50.808;5.670;2023-09-18T06:17:55;8.10;;;1.90;;
25125;SDS011;13106;50.808;5.670;2023-09-18T06:20:21;3.88;;;1.65;;
25125;SDS011;13106;50.808;5.670;2023-09-18T06:22:47;10.00;;;8.98;;
25125;SDS011;13106;50.808;5.670;2023-09-18T06:25:13;8.35;;;1.70;;
25125;SDS011;13106;50.808;5.670;2023-09-18T06:27:39;4.95;;;1.55;;
25125;SDS011;13106;50.808;5.670;2023-09-18T06:30:06;7.93;;;1.83;;
25125;SDS011;13106;50.808;5.670;2023-09-18T06:32:32;3.45;;;2.13;;
25125;SDS011;13106;50.808;5.670;2023-09-18T06:34:59;5.22;;;1.85;;
25125;SDS011;13106;50.808;5.670;2023-09-18T06:37:25;2.97;;;1.48;;
25125;SDS011;13106;50.808;5.670;2023-09-18T06:39:52;1.98;;;1.33;;
25125;SDS011;13106;50.808;5.670;2023-09-18T06:42:18;5.65;;;1.98;;
25125;SDS011;13106;50.808;5.670;2023-09-18T06:44:44;4.00;;;1.60;;
25125;SDS011;13106;50.808;5.670;2023-09-18T06:47:10;4.40;;;1.45;;
25125;SDS011;13106;50.808;5.670;2023-09-18T06:49:36;3.63;;;1.48;;
25125;SDS011;13106;50.808;5.670;2023-09-18T06:52:02;3.70;;;1.58;;
25125;SDS011;13106;50.808;5.670;2023-09-18T06:54:29;4.22;;;1.77;;
25125;SDS011;13106;50.808;5.670;2023-09-18T06:56:55;3.20;;;1.30;;
25125;SDS011;13106;50.808;5.670;2023-09-18T06:59:21;4.03;;;1.33;;
25125;SDS011;13106;50.808;5.670;2023-09-18T07:01:47;4.80;;;1.92;;
25125;SDS011;13106;50.808;5.670;2023-09-18T07:04:13;3.65;;;1.83;;
25125;SDS011;13106;50.808;5.670;2023-09-18T07:06:39;5.95;;;1.48;;
25125;SDS011;13106;50.808;5.670;2023-09-18T07:09:05;2.50;;;1.55;;
25125;SDS011;13106;50.808;5.670;2023-09-18T07:11:32;3.15;;;1.30;;
25125;SDS011;13106;50.808;5.670;2023-09-18T07:13:59;3.45;;;1.52;;
25125;SDS011;13106;50.808;5.670;2023-09-18T07:16:26;5.25;;;1.50;;
25125;SDS011;13106;50.808;5.670;2023-09-18T07:18:51;3.42;;;1.67;;
25125;SDS011;13106;50.808;5.670;2023-09-18T07:21:18;4.30;;;1.80;;
25125;SDS011;13106;50.808;5.670;2023-09-18T07:23:45;4.03;;;1.70;;
25125;SDS011;13106;50.808;5.670;2023-09-18T07:26:12;4.30;;;1.50;;
25125;SDS011;13106;50.808;5.670;2023-09-18T07:28:38;2.67;;;1.75;;
25125;SDS011;13106;50.808;5.670;2023-09-18T07:31:08;3.95;;;1.40;;
25125;SDS011;13106;50.808;5.670;2023-09-18T07:33:37;4.13;;;1.80;;
25125;SDS011;13106;50.808;5.670;2023-09-18T07:36:03;4.78;;;2.10;;
25125;SDS011;13106;50.808;5.670;2023-09-18T07:38:29;3.50;;;2.10;;
25125;SDS011;13106;50.808;5.670;2023-09-18T07:40:55;4.93;;;1.48;;
25125;SDS011;13106;50.808;5.670;2023-09-18T07:43:23;3.05;;;1.40;;
25125;SDS011;13106;50.808;5.670;2023-09-18T07:45:50;5.50;;;1.67;;
25125;SDS011;13106;50.808;5.670;2023-09-18T07:48:16;3.03;;;1.60;;
25125;SDS011;13106;50.808;5.670;2023-09-18T07:50:45;7.50;;;1.50;;
25125;SDS011;13106;50.808;5.670;2023-09-18T07:53:11;3.70;;;1.50;;
25125;SDS011;13106;50.808;5.670;2023-09-18T07:55:37;3.53;;;1.52;;
25125;SDS011;13106;50.808;5.670;2023-09-18T07:58:03;4.40;;;1.70;;
25125;SDS011;13106;50.808;5.670;2023-09-18T08:00:30;3.13;;;1.50;;
25125;SDS011;13106;50.808;5.670;2023-09-18T08:02:58;3.17;;;1.30;;
25125;SDS011;13106;50.808;5.670;2023-09-18T08:05:29;4.68;;;1.63;;
25125;SDS011;13106;50.808;5.670;2023-09-18T08:07:56;5.25;;;1.83;;
25125;SDS011;13106;50.808;5.670;2023-09-18T08:10:24;3.72;;;1.40;;
25125;SDS011;13106;50.808;5.670;2023-09-18T08:12:50;2.20;;;1.23;;
25125;SDS011;13106;50.808;5.670;2023-09-18T08:15:18;4.78;;;1.30;;
25125;SDS011;13106;50.808;5.670;2023-09-18T08:17:45;3.80;;;1.30;;
25125;SDS011;13106;50.808;5.670;2023-09-18T08:20:12;5.05;;;1.30;;
25125;SDS011;13106;50.808;5.670;2023-09-18T08:22:38;2.28;;;1.30;;
25125;SDS011;13106;50.808;5.670;2023-09-18T08:25:06;2.50;;;1.30;;
25125;SDS011;13106;50.808;5.670;2023-09-18T08:27:38;2.22;;;1.50;;
25125;SDS011;13106;50.808;5.670;2023-09-18T08:30:07;3.35;;;1.55;;
25125;SDS011;13106;50.808;5.670;2023-09-18T08:32:34;3.25;;;1.50;;
25125;SDS011;13106;50.808;5.670;2023-09-18T08:35:00;4.18;;;1.60;;
25125;SDS011;13106;50.808;5.670;2023-09-18T08:37:27;3.03;;;1.40;;
25125;SDS011;13106;50.808;5.670;2023-09-18T08:39:53;3.38;;;1.60;;
25125;SDS011;13106;50.808;5.670;2023-09-18T08:42:20;4.70;;;1.58;;
25125;SDS011;13106;50.808;5.670;2023-09-18T08:44:47;2.50;;;1.60;;
25125;SDS011;13106;50.808;5.670;2023-09-18T08:47:14;2.50;;;1.65;;
25125;SDS011;13106;50.808;5.670;2023-09-18T08:49:40;4.05;;;1.95;;
25125;SDS011;13106;50.808;5.670;2023-09-18T08:52:07;4.28;;;1.80;;
25125;SDS011;13106;50.808;5.670;2023-09-18T08:54:34;3.03;;;2.28;;
25125;SDS011;13106;50.808;5.670;2023-09-18T08:57:00;4.75;;;2.15;;
25125;SDS011;13106;50.808;5.670;2023-09-18T08:59:26;2.97;;;1.70;;
25125;SDS011;13106;50.808;5.670;2023-09-18T09:01:53;4.32;;;1.48;;
25125;SDS011;13106;50.808;5.670;2023-09-18T09:04:19;2.42;;;1.40;;
25125;SDS011;13106;50.808;5.670;2023-09-18T09:06:46;3.08;;;1.50;;
25125;SDS011;13106;50.808;5.670;2023-09-18T09:09:12;2.53;;;1.60;;
25125;SDS011;13106;50.808;5.670;2023-09-18T09:11:39;3.85;;;1.30;;
25125;SDS011;13106;50.808;5.670;2023-09-18T09:14:10;4.63;;;1.70;;
25125;SDS011;13106;50.808;5.670;2023-09-18T09:16:53;2.85;;;1.70;;
25125;SDS011;13106;50.808;5.670;2023-09-18T09:22:00;3.85;;;1.20;;
25125;SDS011;13106;50.808;5.670;2023-09-18T09:24:37;2.80;;;1.38;;
25125;SDS011;13106;50.808;5.670;2023-09-18T09:27:03;5.15;;;1.58;;
25125;SDS011;13106;50.808;5.670;2023-09-18T09:29:29;3.67;;;1.85;;
25125;SDS011;13106;50.808;5.670;2023-09-18T09:31:56;5.10;;;1.65;;
25125;SDS011;13106;50.808;5.670;2023-09-18T09:34:27;4.80;;;1.67;;
25125;SDS011;13106;50.808;5.670;2023-09-18T09:36:56;7.50;;;1.70;;
25125;SDS011;13106;50.808;5.670;2023-09-18T09:39:22;4.05;;;1.40;;
25125;SDS011;13106;50.808;5.670;2023-09-18T09:41:51;5.03;;;1.73;;
25125;SDS011;13106;50.808;5.670;2023-09-18T09:44:17;4.38;;;1.40;;
25125;SDS011;13106;50.808;5.670;2023-09-18T09:46:47;2.42;;;1.40;;
25125;SDS011;13106;50.808;5.670;2023-09-18T09:51:40;2.53;;;1.63;;
25125;SDS011;13106;50.808;5.670;2023-09-18T09:54:07;3.47;;;1.63;;
25125;SDS011;13106;50.808;5.670;2023-09-18T09:56:39;5.28;;;1.58;;
25125;SDS011;13106;50.808;5.670;2023-09-18T09:59:06;5.15;;;1.55;;
25125;SDS011;13106;50.808;5.670;2023-09-18T10:01:36;1.83;;;1.48;;
25125;SDS011;13106;50.808;5.670;2023-09-18T10:04:04;3.83;;;1.35;;
25125;SDS011;13106;50.808;5.670;2023-09-18T10:06:33;5.22;;;1.40;;
25125;SDS011;13106;50.808;5.670;2023-09-18T10:09:00;3.65;;;1.40;;
25125;SDS011;13106;50.808;5.670;2023-09-18T10:11:28;5.78;;;1.40;;
25125;SDS011;13106;50.808;5.670;2023-09-18T10:14:01;2.38;;;1.38;;
25125;SDS011;13106;50.808;5.670;2023-09-18T10:16:31;6.65;;;2.05;;
25125;SDS011;13106;50.808;5.670;2023-09-18T10:19:14;4.97;;;1.67;;
25125;SDS011;13106;50.808;5.670;2023-09-18T10:26:56;3.30;;;1.27;;
25125;SDS011;13106;50.808;5.670;2023-09-18T10:29:23;2.60;;;1.42;;
25125;SDS011;13106;50.808;5.670;2023-09-18T10:31:50;5.00;;;1.30;;
25125;SDS011;13106;50.808;5.670;2023-09-18T10:34:20;5.03;;;1.30;;
25125;SDS011;13106;50.808;5.670;2023-09-18T10:36:47;5.90;;;1.33;;
25125;SDS011;13106;50.808;5.670;2023-09-18T10:39:14;4.47;;;1.40;;
25125;SDS011;13106;50.808;5.670;2023-09-18T10:41:48;2.40;;;1.52;;
25125;SDS011;13106;50.808;5.670;2023-09-18T10:44:15;2.58;;;1.10;;
25125;SDS011;13106;50.808;5.670;2023-09-18T10:46:43;5.63;;;1.20;;
25125;SDS011;13106;50.808;5.670;2023-09-18T10:49:09;2.35;;;1.45;;
25125;SDS011;13106;50.808;5.670;2023-09-18T10:51:36;2.47;;;1.20;;
25125;SDS011;13106;50.808;5.670;2023-09-18T10:54:07;3.58;;;1.20;;
25125;SDS011;13106;50.808;5.670;2023-09-18T10:56:33;4.25;;;1.50;;
25125;SDS011;13106;50.808;5.670;2023-09-18T10:59:01;3.05;;;1.40;;
25125;SDS011;13106;50.808;5.670;2023-09-18T11:01:30;4.03;;;1.65;;
25125;SDS011;13106;50.808;5.670;2023-09-18T11:04:06;4.30;;;1.40;;
25125;SDS011;13106;50.808;5.670;2023-09-18T11:09:19;5.38;;;1.80;;
25125;SDS011;13106;50.808;5.670;2023-09-18T11:11:46;3.83;;;1.80;;
25125;SDS011;13106;50.808;5.670;2023-09-18T11:14:13;4.90;;;1.48;;
25125;SDS011;13106;50.808;5.670;2023-09-18T11:16:40;3.05;;;1.60;;
25125;SDS011;13106;50.808;5.670;2023-09-18T11:19:10;3.15;;;1.50;;
25125;SDS011;13106;50.808;5.670;2023-09-18T11:21:37;2.45;;;1.45;;
25125;SDS011;13106;50.808;5.670;2023-09-18T11:26:30;3.25;;;1.33;;
25125;SDS011;13106;50.808;5.670;2023-09-18T11:29:06;4.32;;;1.30;;
25125;SDS011;13106;50.808;5.670;2023-09-18T11:31:53;3.10;;;1.50;;
25125;SDS011;13106;50.808;5.670;2023-09-18T11:34:23;2.42;;;1.17;;
25125;SDS011;13106;50.808;5.670;2023-09-18T11:36:56;2.97;;;1.20;;
25125;SDS011;13106;50.808;5.670;2023-09-18T11:39:39;3.10;;;1.45;;
25125;SDS011;13106;50.808;5.670;2023-09-18T11:42:18;1.63;;;1.13;;
25125;SDS011;13106;50.808;5.670;2023-09-18T11:44:47;3.15;;;1.25;;
25125;SDS011;13106;50.808;5.670;2023-09-18T11:47:17;1.70;;;1.08;;
25125;SDS011;13106;50.808;5.670;2023-09-18T11:49:47;2.90;;;1.30;;
25125;SDS011;13106;50.808;5.670;2023-09-18T11:52:23;2.95;;;1.48;;
25125;SDS011;13106;50.808;5.670;2023-09-18T11:54:49;2.60;;;1.23;;
25125;SDS011;13106;50.808;5.670;2023-09-18T11:57:17;2.15;;;1.05;;
25125;SDS011;13106;50.808;5.670;2023-09-18T11:59:43;3.33;;;1.40;;
25125;SDS011;13106;50.808;5.670;2023-09-18T12:02:11;4.20;;;3.80;;
25125;SDS011;13106;50.808;5.670;2023-09-18T12:04:45;3.50;;;1.55;;
25125;SDS011;13106;50.808;5.670;2023-09-18T12:07:12;6.88;;;1.63;;
25125;SDS011;13106;50.808;5.670;2023-09-18T12:09:38;4.07;;;1.23;;
25125;SDS011;13106;50.808;5.670;2023-09-18T12:12:05;3.55;;;1.23;;
25125;SDS011;13106;50.808;5.670;2023-09-18T12:14:32;5.43;;;1.40;;
25125;SDS011;13106;50.808;5.670;2023-09-18T12:16:59;2.30;;;1.50;;
25125;SDS011;13106;50.808;5.670;2023-09-18T12:19:26;1.73;;;1.40;;
25125;SDS011;13106;50.808;5.670;2023-09-18T12:21:52;3.85;;;1.73;;
25125;SDS011;13106;50.808;5.670;2023-09-18T12:24:22;2.55;;;1.33;;
25125;SDS011;13106;50.808;5.670;2023-09-18T12:29:14;3.85;;;1.33;;
25125;SDS011;13106;50.808;5.670;2023-09-18T12:31:40;2.17;;;1.17;;
25125;SDS011;13106;50.808;5.670;2023-09-18T12:34:14;3.25;;;1.40;;
25125;SDS011;13106;50.808;5.670;2023-09-18T12:36:44;3.65;;;1.40;;
25125;SDS011;13106;50.808;5.670;2023-09-18T12:39:12;3.05;;;1.30;;
25125;SDS011;13106;50.808;5.670;2023-09-18T12:41:41;2.60;;;1.20;;
25125;SDS011;13106;50.808;5.670;2023-09-18T12:44:07;1.80;;;1.10;;
25125;SDS011;13106;50.808;5.670;2023-09-18T12:46:34;6.00;;;1.42;;
25125;SDS011;13106;50.808;5.670;2023-09-18T12:49:14;2.40;;;1.30;;
25125;SDS011;13106;50.808;5.670;2023-09-18T12:51:40;3.00;;;0.90;;
25125;SDS011;13106;50.808;5.670;2023-09-18T12:54:07;2.60;;;1.30;;
25125;SDS011;13106;50.808;5.670;2023-09-18T12:56:33;4.00;;;1.10;;
25125;SDS011;13106;50.808;5.670;2023-09-18T12:58:59;2.58;;;1.40;;
25125;SDS011;13106;50.808;5.670;2023-09-18T13:01:25;5.90;;;1.40;;
25125;SDS011;13106;50.808;5.670;2023-09-18T13:03:53;4.75;;;1.50;;
25125;SDS011;13106;50.808;5.670;2023-09-18T13:06:24;2.03;;;1.10;;
25125;SDS011;13106;50.808;5.670;2023-09-18T13:08:50;4.72;;;1.10;;
25125;SDS011;13106;50.808;5.670;2023-09-18T13:11:18;3.47;;;1.30;;
25125;SDS011;13106;50.808;5.670;2023-09-18T13:13:44;5.03;;;1.05;;
25125;SDS011;13106;50.808;5.670;2023-09-18T13:16:10;3.05;;;1.15;;
25125;SDS011;13106;50.808;5.670;2023-09-18T13:18:36;3.22;;;1.50;;
25125;SDS011;13106;50.808;5.670;2023-09-18T13:21:09;2.25;;;1.70;;
25125;SDS011;13106;50.808;5.670;2023-09-18T13:23:36;3.95;;;1.27;;
25125;SDS011;13106;50.808;5.670;2023-09-18T13:26:03;3.22;;;1.10;;
25125;SDS011;13106;50.808;5.670;2023-09-18T13:28:30;2.30;;;1.30;;
25125;SDS011;13106;50.808;5.670;2023-09-18T13:30:57;4.38;;;1.30;;
25125;SDS011;13106;50.808;5.670;2023-09-18T13:33:25;3.33;;;1.65;;
25125;SDS011;13106;50.808;5.670;2023-09-18T13:35:51;6.40;;;1.50;;
25125;SDS011;13106;50.808;5.670;2023-09-18T13:38:18;3.80;;;1.27;;
25125;SDS011;13106;50.808;5.670;2023-09-18T13:40:45;1.83;;;1.30;;
25125;SDS011;13106;50.808;5.670;2023-09-18T13:43:11;3.40;;;1.13;;
25125;SDS011;13106;50.808;5.670;2023-09-18T13:45:40;8.27;;;1.30;;
25125;SDS011;13106;50.808;5.670;2023-09-18T13:48:07;5.25;;;1.30;;
25125;SDS011;13106;50.808;5.670;2023-09-18T13:50:34;3.30;;;1.15;;
25125;SDS011;13106;50.808;5.670;2023-09-18T13:53:01;3.33;;;1.35;;
25125;SDS011;13106;50.808;5.670;2023-09-18T13:55:28;4.43;;;1.20;;
25125;SDS011;13106;50.808;5.670;2023-09-18T13:57:54;5.75;;;1.10;;
25125;SDS011;13106;50.808;5.670;2023-09-18T14:00:21;7.05;;;1.42;;
25125;SDS011;13106;50.808;5.670;2023-09-18T14:02:48;2.15;;;1.08;;
25125;SDS011;13106;50.808;5.670;2023-09-18T14:05:14;8.63;;;2.00;;
25125;SDS011;13106;50.808;5.670;2023-09-18T14:07:40;7.13;;;1.23;;
25125;SDS011;13106;50.808;5.670;2023-09-18T14:10:06;2.53;;;1.20;;
25125;SDS011;13106;50.808;5.670;2023-09-18T14:12:33;3.05;;;1.40;;
25125;SDS011;13106;50.808;5.670;2023-09-18T14:14:59;2.25;;;1.08;;
25125;SDS011;13106;50.808;5.670;2023-09-18T14:17:25;4.78;;;1.20;;
25125;SDS011;13106;50.808;5.670;2023-09-18T14:19:51;2.63;;;1.10;;
25125;SDS011;13106;50.808;5.670;2023-09-18T14:22:18;3.00;;;1.40;;
25125;SDS011;13106;50.808;5.670;2023-09-18T14:24:44;4.90;;;1.30;;
25125;SDS011;13106;50.808;5.670;2023-09-18T14:27:10;4.35;;;1.45;;
25125;SDS011;13106;50.808;5.670;2023-09-18T14:29:37;9.57;;;1.70;;
25125;SDS011;13106;50.808;5.670;2023-09-18T14:32:03;5.18;;;1.30;;
25125;SDS011;13106;50.808;5.670;2023-09-18T14:34:30;6.63;;;1.38;;
25125;SDS011;13106;50.808;5.670;2023-09-18T14:36:59;6.53;;;1.33;;
25125;SDS011;13106;50.808;5.670;2023-09-18T14:39:25;7.43;;;1.33;;
25125;SDS011;13106;50.808;5.670;2023-09-18T14:41:51;9.75;;;1.65;;
25125;SDS011;13106;50.808;5.670;2023-09-18T14:44:17;7.20;;;1.48;;
25125;SDS011;13106;50.808;5.670;2023-09-18T14:46:43;4.03;;;1.17;;
25125;SDS011;13106;50.808;5.670;2023-09-18T14:49:09;3.15;;;1.10;;
25125;SDS011;13106;50.808;5.670;2023-09-18T14:51:36;3.35;;;1.15;;
25125;SDS011;13106;50.808;5.670;2023-09-18T14:54:02;3.30;;;1.38;;
25125;SDS011;13106;50.808;5.670;2023-09-18T14:56:29;1.77;;;1.30;;
25125;SDS011;13106;50.808;5.670;2023-09-18T14:58:56;3.22;;;1.45;;
25125;SDS011;13106;50.808;5.670;2023-09-18T15:01:22;6.03;;;1.50;;
25125;SDS011;13106;50.808;5.670;2023-09-18T15:03:48;2.42;;;1.30;;
25125;SDS011;13106;50.808;5.670;2023-09-18T15:06:15;4.40;;;1.35;;
25125;SDS011;13106;50.808;5.670;2023-09-18T15:08:41;4.93;;;1.40;;
25125;SDS011;13106;50.808;5.670;2023-09-18T15:11:07;3.05;;;1.30;;